Jardim do Serido, Brazil
Current Conditions -  °F | °C
As of 8:00 AM on Monday 20 Oct 2014 (Local Time) from SBKG Reporting Station
Broken Clouds Broken Clouds  
Wind Chill: 75°   Ceiling: 1800
Heat Index: 75°   Visibility: 6mi
Dew Point: 66°   Wind: 13mph
Humidity: 73%   Direction: 120°ESE
Pressure: 30.03"   Gusts: NA
Location:  6.58°S, 36.77°W
Report Text: SBKG 201100Z 12011KT 9999 BKN018 24/19 Q1017
Loading
Personal Weather Stations






























Interactive Weather Map
Tropical Storm Tracking
New forecast layout! Learn more

10-Day Weather Forecast

Advertisements
Track Severe Weather on mobile